Time;durP1;ratioP1;P1;durP2;ratioP2;P2;SDS_P1;SDS_P2;PMS_P1;PMS_P2;Temp;Humidity;BMP_temperature;BMP_pressure;BME280_temperature;BME280_humidity;BME280_pressure;Samples;Min_cycle;Max_cycle;Signal;HPM_P1;HPM_P2
2022/01/14 00:02:52;;;;;;;52.55;27.50;;;;;;;;;;6243388;28;20485;-75
2022/01/14 00:05:52;;;;;;;40.03;24.35;;;;;;;;;;6243485;28;20029;-75
2022/01/14 00:09:04;;;;;;;35.42;18.75;;;;;;;;;;6243535;28;20032;-75
2022/01/14 00:12:11;;;;;;;37.80;22.08;;;;;;;;;;6253439;28;20025;-75
2022/01/14 00:15:24;;;;;;;38.00;16.55;;;;;;;;;;6243599;28;20595;-75
2022/01/14 00:18:24;;;;;;;52.10;25.33;;;;;;;;;;6242212;28;20440;-75
2022/01/14 00:21:24;;;;;;;34.13;18.90;;;;;;;;;;6254130;28;20025;-75
2022/01/14 00:24:30;;;;;;;46.85;27.60;;;;;;;;;;6267647;28;20032;-75
2022/01/14 00:34:10;;;;;;;34.60;21.80;;;;;;;;;;6243176;28;20053;-75
2022/01/14 00:37:10;;;;;;;41.30;20.73;;;;;;;;;;6242989;28;20018;-75
2022/01/14 00:40:11;;;;;;;48.28;23.95;;;;;;;;;;6254712;28;20067;-75
2022/01/14 00:43:11;;;;;;;50.90;25.35;;;;;;;;;;6266363;28;20032;-75
2022/01/14 00:46:13;;;;;;;42.28;17.88;;;;;;;;;;6246458;28;20029;-75
2022/01/14 00:49:14;;;;;;;54.27;25.27;;;;;;;;;;6243363;28;20409;-75
2022/01/14 00:52:14;;;;;;;42.77;18.87;;;;;;;;;;6262755;28;20023;-75
2022/01/14 00:55:16;;;;;;;47.78;23.85;;;;;;;;;;6255201;28;20389;-75
2022/01/14 01:01:35;;;;;;;46.42;26.05;;;;;;;;;;6262985;28;20029;-75
2022/01/14 01:04:38;;;;;;;43.70;21.08;;;;;;;;;;6267928;28;20075;-75
2022/01/14 01:07:42;;;;;;;30.45;18.60;;;;;;;;;;6266583;28;20056;-75
2022/01/14 01:10:48;;;;;;;39.85;22.30;;;;;;;;;;6258362;28;20025;-73
2022/01/14 01:13:58;;;;;;;42.63;20.92;;;;;;;;;;6267373;28;20021;-75
2022/01/14 01:16:58;;;;;;;29.92;18.73;;;;;;;;;;6266393;28;20147;-73
2022/01/14 01:19:58;;;;;;;30.35;15.43;;;;;;;;;;6267042;28;20033;-73
2022/01/14 01:22:59;;;;;;;34.88;16.30;;;;;;;;;;6263977;28;20036;-73
2022/01/14 01:26:10;;;;;;;33.28;15.93;;;;;;;;;;6267653;28;20444;-74
2022/01/14 01:32:11;;;;;;;31.52;16.38;;;;;;;;;;6264725;28;20040;-74
2022/01/14 01:35:12;;;;;;;20.92;13.07;;;;;;;;;;6266915;28;20071;-74
2022/01/14 01:38:16;;;;;;;32.35;16.27;;;;;;;;;;6264151;28;20380;-74
2022/01/14 01:41:18;;;;;;;32.72;16.80;;;;;;;;;;6264368;28;20500;-74
2022/01/14 01:44:19;;;;;;;27.38;16.30;;;;;;;;;;6262518;28;20010;-74
2022/01/14 01:47:22;;;;;;;35.08;18.40;;;;;;;;;;6242550;28;20044;-74
2022/01/14 01:50:26;;;;;;;33.25;17.60;;;;;;;;;;6263905;28;20059;-74
2022/01/14 01:53:27;;;;;;;36.50;20.80;;;;;;;;;;6271888;28;20021;-75
2022/01/14 01:56:27;;;;;;;35.75;18.25;;;;;;;;;;6271600;28;20020;-75
2022/01/14 01:59:28;;;;;;;33.08;17.80;;;;;;;;;;6266494;28;20488;-75
2022/01/14 02:02:28;;;;;;;36.58;17.33;;;;;;;;;;6257533;28;20045;-75
2022/01/14 02:05:28;;;;;;;37.55;18.80;;;;;;;;;;6246204;28;20053;-75
2022/01/14 02:08:28;;;;;;;29.15;15.88;;;;;;;;;;6246850;28;20358;-75
2022/01/14 02:11:29;;;;;;;27.80;14.05;;;;;;;;;;6260011;28;20095;-75
2022/01/14 02:17:46;;;;;;;35.95;15.25;;;;;;;;;;6252935;28;20040;-75
2022/01/14 02:27:20;;;;;;;31.80;14.70;;;;;;;;;;6255621;28;20094;-74
2022/01/14 02:30:21;;;;;;;34.80;17.00;;;;;;;;;;6269557;28;20024;-74
2022/01/14 02:33:22;;;;;;;31.42;14.63;;;;;;;;;;6269637;28;20155;-74
2022/01/14 02:36:22;;;;;;;32.95;16.75;;;;;;;;;;6270299;28;20033;-74
2022/01/14 02:39:22;;;;;;;30.33;14.85;;;;;;;;;;6268734;28;20443;-74
2022/01/14 02:42:23;;;;;;;34.38;15.68;;;;;;;;;;6270396;28;20422;-74
2022/01/14 02:45:27;;;;;;;31.88;15.77;;;;;;;;;;6255459;28;20022;-74
2022/01/14 02:48:28;;;;;;;34.08;17.42;;;;;;;;;;6245258;28;20112;-74
2022/01/14 02:51:29;;;;;;;42.37;20.47;;;;;;;;;;6252479;28;20390;-74
2022/01/14 02:54:40;;;;;;;25.85;13.23;;;;;;;;;;6243975;28;20021;-74
2022/01/14 02:57:48;;;;;;;36.28;18.90;;;;;;;;;;6262558;28;20066;-74
2022/01/14 03:00:50;;;;;;;34.55;18.92;;;;;;;;;;6266118;28;20463;-74
2022/01/14 03:03:54;;;;;;;46.75;21.80;;;;;;;;;;6268069;28;20025;-74
2022/01/14 03:06:54;;;;;;;36.92;19.35;;;;;;;;;;6269718;28;20070;-74
2022/01/14 03:09:55;;;;;;;34.53;17.50;;;;;;;;;;6266556;28;20024;-74
2022/01/14 03:12:55;;;;;;;30.27;14.50;;;;;;;;;;6246899;28;20009;-74
2022/01/14 03:15:55;;;;;;;22.52;12.45;;;;;;;;;;6257373;28;20031;-74
2022/01/14 03:19:05;;;;;;;30.73;16.38;;;;;;;;;;6269642;28;20028;-74
2022/01/14 03:22:31;;;;;;;33.80;16.95;;;;;;;;;;6259954;28;20420;-74
2022/01/14 03:25:47;;;;;;;42.25;22.30;;;;;;;;;;6244449;28;20079;-74
2022/01/14 03:28:48;;;;;;;35.00;15.50;;;;;;;;;;6266245;28;20052;-74
2022/01/14 03:31:48;;;;;;;29.23;15.75;;;;;;;;;;6247764;28;20024;-74
2022/01/14 03:34:49;;;;;;;28.40;16.63;;;;;;;;;;6260615;28;20385;-74
2022/01/14 03:37:49;;;;;;;33.92;17.30;;;;;;;;;;6267494;28;20024;-74
2022/01/14 03:40:49;;;;;;;50.05;22.20;;;;;;;;;;6269463;28;20127;-74
2022/01/14 03:43:49;;;;;;;47.90;22.08;;;;;;;;;;6247284;28;20037;-74
2022/01/14 03:46:50;;;;;;;34.92;20.83;;;;;;;;;;6268831;28;20023;-74
2022/01/14 03:49:50;;;;;;;24.13;14.68;;;;;;;;;;6269025;28;20071;-74
2022/01/14 03:52:50;;;;;;;33.45;18.02;;;;;;;;;;6255506;28;20018;-74
2022/01/14 03:55:51;;;;;;;42.50;19.35;;;;;;;;;;6246578;28;20025;-74
2022/01/14 03:58:51;;;;;;;38.47;20.27;;;;;;;;;;6268675;28;20032;-74
2022/01/14 04:01:51;;;;;;;49.47;26.70;;;;;;;;;;6261831;28;20496;-74
2022/01/14 04:04:52;;;;;;;39.08;21.42;;;;;;;;;;6266347;28;20446;-77
2022/01/14 04:07:52;;;;;;;51.83;23.15;;;;;;;;;;6268399;28;20479;-74
2022/01/14 04:10:54;;;;;;;28.83;16.40;;;;;;;;;;6258948;28;20025;-74
2022/01/14 04:13:56;;;;;;;36.33;20.83;;;;;;;;;;6241608;28;20203;-74
2022/01/14 04:16:57;;;;;;;31.83;15.15;;;;;;;;;;6259280;28;20516;-74
2022/01/14 04:19:57;;;;;;;35.30;17.83;;;;;;;;;;6268219;28;20025;-74
2022/01/14 04:22:57;;;;;;;30.77;11.70;;;;;;;;;;6264137;28;20036;-74
2022/01/14 04:25:58;;;;;;;46.33;19.05;;;;;;;;;;6267650;28;20029;-74
2022/01/14 04:28:58;;;;;;;41.97;18.60;;;;;;;;;;6244951;28;20037;-74
2022/01/14 04:31:59;;;;;;;39.17;20.02;;;;;;;;;;6243484;28;20029;-74
2022/01/14 04:34:59;;;;;;;38.42;16.90;;;;;;;;;;6255498;28;20041;-74
2022/01/14 04:38:00;;;;;;;36.90;18.95;;;;;;;;;;6253678;28;20129;-74
2022/01/14 04:41:00;;;;;;;37.17;17.50;;;;;;;;;;6256973;28;20056;-74
2022/01/14 04:44:01;;;;;;;45.88;23.40;;;;;;;;;;6255089;28;20079;-74
2022/01/14 04:47:14;;;;;;;33.88;17.63;;;;;;;;;;6254287;28;20068;-74
2022/01/14 04:50:17;;;;;;;43.50;24.02;;;;;;;;;;6256683;28;20380;-74
2022/01/14 04:53:17;;;;;;;48.55;20.00;;;;;;;;;;6255946;28;20053;-74
2022/01/14 04:56:17;;;;;;;39.50;21.75;;;;;;;;;;6252891;28;20013;-74
2022/01/14 04:59:18;;;;;;;52.60;27.95;;;;;;;;;;6250171;28;20029;-74
2022/01/14 05:02:18;;;;;;;40.30;18.92;;;;;;;;;;6249262;28;20033;-74
2022/01/14 05:05:21;;;;;;;38.67;19.70;;;;;;;;;;6245945;28;20036;-74
2022/01/14 05:08:27;;;;;;;33.58;16.73;;;;;;;;;;6245532;28;20547;-74
2022/01/14 05:11:39;;;;;;;45.97;23.23;;;;;;;;;;6249106;28;20017;-77
2022/01/14 05:14:39;;;;;;;54.03;25.60;;;;;;;;;;6251227;28;20108;-74
2022/01/14 05:17:40;;;;;;;38.38;18.88;;;;;;;;;;6244281;28;20021;-74
2022/01/14 05:20:40;;;;;;;60.10;32.05;;;;;;;;;;6243727;28;20047;-74
2022/01/14 05:23:42;;;;;;;40.63;20.10;;;;;;;;;;6255266;28;20050;-74
2022/01/14 05:26:42;;;;;;;54.50;24.80;;;;;;;;;;6250335;28;20017;-74
2022/01/14 05:29:43;;;;;;;41.17;20.95;;;;;;;;;;6253794;28;20102;-74
2022/01/14 05:32:47;;;;;;;41.28;20.98;;;;;;;;;;6256455;28;20044;-74
2022/01/14 05:35:47;;;;;;;42.00;22.10;;;;;;;;;;6260903;28;20333;-74
2022/01/14 05:38:47;;;;;;;41.70;18.55;;;;;;;;;;6260302;28;20089;-74
2022/01/14 05:41:48;;;;;;;52.13;27.55;;;;;;;;;;6259734;28;20052;-74
2022/01/14 05:44:48;;;;;;;59.20;23.50;;;;;;;;;;6258416;28;20341;-74
2022/01/14 05:47:48;;;;;;;33.03;19.98;;;;;;;;;;6258629;28;20026;-74
2022/01/14 05:50:49;;;;;;;39.13;20.70;;;;;;;;;;6258182;28;20374;-74
2022/01/14 05:53:49;;;;;;;42.13;19.92;;;;;;;;;;6246707;28;20104;-74
2022/01/14 05:56:50;;;;;;;57.42;26.92;;;;;;;;;;6265079;28;20021;-74
2022/01/14 05:59:50;;;;;;;51.08;21.50;;;;;;;;;;6253239;28;20103;-74
2022/01/14 06:02:51;;;;;;;59.28;27.30;;;;;;;;;;6245731;28;20519;-74
2022/01/14 06:05:51;;;;;;;44.13;23.42;;;;;;;;;;6261454;28;20523;-74
2022/01/14 06:08:52;;;;;;;56.58;28.80;;;;;;;;;;6265719;28;20107;-74
2022/01/14 06:11:52;;;;;;;47.33;21.48;;;;;;;;;;6262076;28;20021;-74
2022/01/14 06:14:52;;;;;;;62.83;32.80;;;;;;;;;;6271179;28;20017;-74
2022/01/14 06:17:52;;;;;;;47.47;22.77;;;;;;;;;;6254082;28;20033;-74
2022/01/14 06:20:53;;;;;;;40.90;21.58;;;;;;;;;;6247700;28;20029;-74
2022/01/14 06:23:53;;;;;;;34.65;16.23;;;;;;;;;;6247294;28;20080;-74
2022/01/14 06:26:53;;;;;;;35.20;15.30;;;;;;;;;;6257245;28;20036;-74
2022/01/14 06:29:54;;;;;;;36.60;18.58;;;;;;;;;;6256240;28;20037;-74
2022/01/14 06:32:55;;;;;;;42.35;21.60;;;;;;;;;;6251053;28;20155;-74
2022/01/14 06:35:56;;;;;;;31.90;17.25;;;;;;;;;;6256727;28;20021;-74
2022/01/14 06:38:56;;;;;;;28.45;15.02;;;;;;;;;;6261486;28;20059;-74
2022/01/14 06:41:56;;;;;;;31.98;16.10;;;;;;;;;;6250437;28;20017;-74
2022/01/14 06:44:56;;;;;;;46.90;21.05;;;;;;;;;;6252091;28;20032;-74
2022/01/14 06:47:57;;;;;;;47.15;24.48;;;;;;;;;;6249314;28;20104;-74
2022/01/14 06:50:58;;;;;;;41.60;20.88;;;;;;;;;;6269433;28;20096;-74
2022/01/14 06:53:58;;;;;;;36.15;18.83;;;;;;;;;;6257702;28;20017;-74
2022/01/14 06:56:58;;;;;;;47.72;21.00;;;;;;;;;;6266640;28;20028;-74
2022/01/14 06:59:58;;;;;;;60.85;28.02;;;;;;;;;;6250400;28;20036;-74
2022/01/14 07:02:59;;;;;;;49.38;21.42;;;;;;;;;;6247914;28;20174;-74
2022/01/14 07:05:59;;;;;;;42.90;19.33;;;;;;;;;;6257926;28;20025;-72
2022/01/14 07:08:59;;;;;;;38.42;20.15;;;;;;;;;;6264592;28;20045;-72
2022/01/14 07:12:01;;;;;;;37.95;18.10;;;;;;;;;;6248523;28;20031;-74
2022/01/14 07:15:03;;;;;;;55.33;21.15;;;;;;;;;;6263976;28;20063;-74
2022/01/14 07:18:03;;;;;;;43.88;16.15;;;;;;;;;;6251395;28;20021;-74
2022/01/14 07:21:03;;;;;;;45.90;21.42;;;;;;;;;;6245986;28;20118;-74
2022/01/14 07:24:04;;;;;;;45.47;24.30;;;;;;;;;;6245745;28;20128;-74
2022/01/14 07:27:04;;;;;;;31.00;16.67;;;;;;;;;;6249687;28;20021;-74
2022/01/14 07:30:05;;;;;;;42.53;19.63;;;;;;;;;;6244537;28;20032;-74
2022/01/14 07:33:05;;;;;;;36.90;18.80;;;;;;;;;;6243255;28;20038;-74
2022/01/14 07:36:06;;;;;;;33.30;15.95;;;;;;;;;;6247482;28;20025;-74
2022/01/14 07:39:06;;;;;;;32.60;14.90;;;;;;;;;;6269266;28;20016;-73
2022/01/14 07:42:07;;;;;;;37.15;19.95;;;;;;;;;;6267943;28;20117;-74
2022/01/14 07:45:07;;;;;;;58.95;26.70;;;;;;;;;;6250431;28;20045;-74
2022/01/14 07:48:08;;;;;;;37.05;19.05;;;;;;;;;;6261557;28;20361;-73
2022/01/14 07:51:09;;;;;;;44.45;19.73;;;;;;;;;;6262918;28;20374;-73
2022/01/14 07:54:10;;;;;;;55.47;26.15;;;;;;;;;;6244537;28;20107;-74
2022/01/14 07:57:10;;;;;;;56.03;23.75;;;;;;;;;;6257774;28;20009;-74
2022/01/14 08:00:11;;;;;;;48.40;24.05;;;;;;;;;;6258285;28;20096;-74
2022/01/14 08:03:11;;;;;;;45.83;22.23;;;;;;;;;;6260474;28;20472;-74
2022/01/14 08:06:12;;;;;;;40.45;18.38;;;;;;;;;;6242151;28;20083;-74
2022/01/14 08:09:13;;;;;;;36.60;18.92;;;;;;;;;;6245035;28;20030;-75
2022/01/14 08:12:13;;;;;;;34.85;17.73;;;;;;;;;;6255727;28;20461;-74
2022/01/14 08:15:13;;;;;;;32.50;17.95;;;;;;;;;;6246362;28;20057;-74
2022/01/14 08:18:14;;;;;;;33.55;18.23;;;;;;;;;;6257378;28;20061;-74
2022/01/14 08:21:14;;;;;;;36.47;18.75;;;;;;;;;;6251160;28;20434;-74
2022/01/14 08:24:14;;;;;;;50.85;26.88;;;;;;;;;;6255031;28;20052;-74
2022/01/14 08:27:15;;;;;;;37.40;20.67;;;;;;;;;;6261380;28;20020;-74
2022/01/14 08:30:15;;;;;;;44.03;22.65;;;;;;;;;;6253181;28;20373;-74
2022/01/14 08:33:15;;;;;;;34.08;17.50;;;;;;;;;;6250270;28;20037;-74
2022/01/14 08:36:16;;;;;;;54.55;25.13;;;;;;;;;;6249295;28;20045;-74
2022/01/14 08:39:17;;;;;;;52.28;26.00;;;;;;;;;;6261446;28;20013;-74
2022/01/14 08:42:17;;;;;;;54.28;24.98;;;;;;;;;;6253450;28;20393;-74
2022/01/14 08:45:21;;;;;;;37.58;21.33;;;;;;;;;;6256334;28;20112;-74
2022/01/14 08:48:21;;;;;;;54.97;27.55;;;;;;;;;;6249767;28;20052;-74
2022/01/14 08:51:21;;;;;;;48.67;25.65;;;;;;;;;;6253876;28;20041;-74
2022/01/14 08:54:22;;;;;;;49.05;23.13;;;;;;;;;;6249586;28;20045;-74
2022/01/14 08:57:22;;;;;;;57.97;25.25;;;;;;;;;;6256597;28;20021;-74
2022/01/14 09:00:23;;;;;;;75.78;34.15;;;;;;;;;;6250456;28;20023;-74
2022/01/14 09:03:24;;;;;;;72.05;37.38;;;;;;;;;;6263843;28;20028;-74
2022/01/14 09:06:24;;;;;;;68.20;33.58;;;;;;;;;;6271272;28;20384;-74
2022/01/14 09:09:24;;;;;;;76.45;31.65;;;;;;;;;;6265155;28;20417;-74
2022/01/14 09:12:25;;;;;;;82.88;37.65;;;;;;;;;;6269263;28;20354;-74
2022/01/14 09:15:25;;;;;;;74.75;32.95;;;;;;;;;;6261479;28;20037;-74
2022/01/14 09:18:25;;;;;;;71.47;33.47;;;;;;;;;;6247238;28;20422;-74
2022/01/14 09:21:26;;;;;;;66.47;34.80;;;;;;;;;;6249773;28;20544;-74
2022/01/14 09:24:26;;;;;;;58.58;26.70;;;;;;;;;;6247898;28;20100;-74
2022/01/14 09:27:27;;;;;;;63.22;29.75;;;;;;;;;;6248880;28;20022;-74
2022/01/14 09:30:27;;;;;;;73.97;36.15;;;;;;;;;;6247449;28;20025;-74
2022/01/14 09:33:28;;;;;;;78.32;42.15;;;;;;;;;;6264729;28;20501;-74
2022/01/14 09:36:29;;;;;;;71.85;34.88;;;;;;;;;;6254413;28;20032;-74
2022/01/14 09:39:31;;;;;;;62.33;31.65;;;;;;;;;;6249889;28;20080;-74
2022/01/14 09:42:31;;;;;;;75.35;34.72;;;;;;;;;;6261309;28;20060;-74
2022/01/14 09:45:33;;;;;;;81.45;39.55;;;;;;;;;;6262083;28;20380;-74
2022/01/14 09:48:34;;;;;;;60.60;28.90;;;;;;;;;;6266786;28;20018;-74
2022/01/14 09:51:35;;;;;;;75.23;36.27;;;;;;;;;;6259570;28;20466;-74
2022/01/14 09:54:36;;;;;;;72.05;34.78;;;;;;;;;;6247473;28;20259;-74
2022/01/14 09:57:37;;;;;;;54.97;27.73;;;;;;;;;;6260835;28;20020;-74
2022/01/14 10:00:37;;;;;;;52.75;23.83;;;;;;;;;;6258878;28;20122;-74
2022/01/14 10:03:48;;;;;;;69.40;30.95;;;;;;;;;;6259768;28;20448;-74
2022/01/14 10:06:53;;;;;;;57.38;30.38;;;;;;;;;;6256898;28;20437;-74
2022/01/14 10:09:59;;;;;;;63.25;27.75;;;;;;;;;;6255048;28;20568;-74
2022/01/14 10:13:09;;;;;;;68.15;34.42;;;;;;;;;;6255617;28;20017;-74
2022/01/14 10:16:10;;;;;;;63.78;31.63;;;;;;;;;;6266993;28;20454;-74
2022/01/14 10:19:24;;;;;;;62.67;28.60;;;;;;;;;;6260324;28;20512;-75
2022/01/14 10:22:25;;;;;;;66.82;32.00;;;;;;;;;;6251875;28;20029;-74
2022/01/14 10:25:26;;;;;;;52.35;28.00;;;;;;;;;;6268229;28;20564;-74
2022/01/14 10:28:26;;;;;;;55.83;26.83;;;;;;;;;;6254166;28;20029;-74
2022/01/14 10:31:30;;;;;;;47.83;23.25;;;;;;;;;;6261810;28;20401;-74
2022/01/14 10:34:31;;;;;;;54.13;24.40;;;;;;;;;;6260744;28;20041;-74
2022/01/14 10:37:32;;;;;;;54.20;24.30;;;;;;;;;;6260181;28;20325;-74
2022/01/14 10:40:40;;;;;;;45.33;23.77;;;;;;;;;;6263328;28;20020;-74
2022/01/14 10:43:41;;;;;;;64.45;32.83;;;;;;;;;;6262388;28;20350;-74
2022/01/14 10:46:41;;;;;;;40.90;19.80;;;;;;;;;;6260461;28;20033;-74
2022/01/14 10:49:43;;;;;;;48.17;23.35;;;;;;;;;;6259691;28;20047;-74
2022/01/14 10:52:48;;;;;;;40.15;20.65;;;;;;;;;;6257510;28;20385;-74
2022/01/14 10:55:50;;;;;;;43.90;24.42;;;;;;;;;;6265188;28;20503;-75
2022/01/14 10:58:53;;;;;;;49.28;21.48;;;;;;;;;;6252920;28;20059;-75
2022/01/14 11:01:53;;;;;;;34.90;18.55;;;;;;;;;;6250830;28;20031;-75
2022/01/14 11:05:04;;;;;;;50.78;25.60;;;;;;;;;;6262263;28;20017;-75
2022/01/14 11:08:05;;;;;;;38.85;17.92;;;;;;;;;;6246074;28;20108;-75
2022/01/14 11:11:05;;;;;;;38.83;18.13;;;;;;;;;;6253441;28;20028;-75
2022/01/14 11:14:06;;;;;;;34.90;17.67;;;;;;;;;;6268471;28;20027;-75
2022/01/14 11:17:08;;;;;;;31.80;14.85;;;;;;;;;;6256539;28;20022;-75
2022/01/14 11:20:09;;;;;;;41.20;21.35;;;;;;;;;;6259593;28;20083;-75
2022/01/14 11:23:16;;;;;;;37.88;19.95;;;;;;;;;;6251606;28;20018;-75
2022/01/14 11:26:19;;;;;;;51.28;23.15;;;;;;;;;;6248096;28;20025;-75
2022/01/14 11:29:20;;;;;;;79.50;35.08;;;;;;;;;;6260604;28;20025;-75
2022/01/14 11:32:21;;;;;;;30.70;17.02;;;;;;;;;;6266619;28;20024;-75
2022/01/14 11:35:23;;;;;;;58.78;26.88;;;;;;;;;;6249593;28;20041;-75
2022/01/14 11:38:32;;;;;;;31.70;17.90;;;;;;;;;;6251192;28;20018;-75
2022/01/14 11:41:53;;;;;;;43.42;18.55;;;;;;;;;;6261234;28;20068;-75
2022/01/14 11:45:00;;;;;;;38.08;16.15;;;;;;;;;;6248956;28;20021;-75
2022/01/14 11:48:01;;;;;;;34.58;21.08;;;;;;;;;;6249785;28;20489;-75
2022/01/14 11:51:06;;;;;;;29.80;15.65;;;;;;;;;;6247673;28;20030;-75
2022/01/14 11:54:07;;;;;;;38.85;17.00;;;;;;;;;;6247415;28;20052;-75
2022/01/14 11:57:08;;;;;;;39.25;17.83;;;;;;;;;;6253999;28;20024;-75
2022/01/14 12:00:59;;;;;;;45.80;23.88;;;;;;;;;;6250223;28;20052;-75
2022/01/14 12:03:53;;;;;;;39.88;18.30;;;;;;;;;;6242851;28;20037;-75
2022/01/14 12:06:54;;;;;;;44.10;18.00;;;;;;;;;;6241593;28;20083;-75
2022/01/14 12:10:09;;;;;;;37.22;18.38;;;;;;;;;;6257217;28;20048;-75
2022/01/14 12:13:41;;;;;;;30.10;17.15;;;;;;;;;;6241038;28;20017;-75
2022/01/14 12:16:49;;;;;;;22.70;11.18;;;;;;;;;;6232601;28;20447;-75
2022/01/14 12:19:53;;;;;;;30.45;15.45;;;;;;;;;;6242698;28;20052;-75
2022/01/14 12:23:11;;;;;;;23.77;14.30;;;;;;;;;;6246635;28;20384;-75
2022/01/14 12:26:13;;;;;;;32.70;16.80;;;;;;;;;;6254745;28;20013;-74
2022/01/14 12:29:14;;;;;;;39.40;20.98;;;;;;;;;;6254241;28;20015;-75
2022/01/14 12:32:14;;;;;;;48.88;25.27;;;;;;;;;;6252518;28;20048;-75
2022/01/14 12:35:23;;;;;;;27.63;14.68;;;;;;;;;;6251310;28;20060;-75
2022/01/14 12:38:25;;;;;;;44.75;22.52;;;;;;;;;;6251346;28;20088;-75
2022/01/14 12:41:26;;;;;;;62.30;30.48;;;;;;;;;;6254760;28;20024;-75
2022/01/14 12:44:27;;;;;;;37.97;17.43;;;;;;;;;;6255624;28;20013;-75
2022/01/14 12:47:31;;;;;;;31.30;15.82;;;;;;;;;;6251781;28;20088;-75
2022/01/14 12:50:32;;;;;;;70.32;36.03;;;;;;;;;;6254282;28;20447;-75
2022/01/14 12:53:33;;;;;;;41.05;22.83;;;;;;;;;;6260458;28;20033;-75
2022/01/14 12:56:35;;;;;;;39.15;20.33;;;;;;;;;;6247528;28;20461;-75
2022/01/14 12:59:38;;;;;;;56.92;26.60;;;;;;;;;;6254065;28;20078;-75
2022/01/14 13:02:39;;;;;;;56.83;26.38;;;;;;;;;;6257815;28;20015;-75
2022/01/14 13:05:39;;;;;;;33.35;19.83;;;;;;;;;;6267115;28;20009;-75
2022/01/14 13:08:40;;;;;;;34.70;16.25;;;;;;;;;;6262648;28;20032;-75
2022/01/14 13:11:47;;;;;;;34.60;18.50;;;;;;;;;;6254906;28;20048;-75
2022/01/14 13:14:52;;;;;;;37.03;17.40;;;;;;;;;;6254074;28;20372;-75
2022/01/14 13:18:03;;;;;;;35.80;19.92;;;;;;;;;;6254031;28;20473;-74
2022/01/14 13:21:04;;;;;;;29.58;16.33;;;;;;;;;;6264788;28;20455;-75
2022/01/14 13:24:16;;;;;;;33.50;15.52;;;;;;;;;;6245194;28;20071;-75
2022/01/14 13:27:28;;;;;;;30.30;18.77;;;;;;;;;;6247450;28;20018;-75
2022/01/14 13:30:31;;;;;;;31.10;15.52;;;;;;;;;;6266280;28;20075;-75
2022/01/14 13:33:31;;;;;;;31.80;14.32;;;;;;;;;;6253865;28;20038;-75
2022/01/14 13:36:32;;;;;;;34.05;20.80;;;;;;;;;;6241150;28;20733;-75
2022/01/14 13:39:32;;;;;;;37.55;19.70;;;;;;;;;;6248096;28;20032;-75
2022/01/14 13:42:32;;;;;;;31.30;16.15;;;;;;;;;;6265587;28;20024;-75
2022/01/14 13:45:37;;;;;;;41.80;18.67;;;;;;;;;;6252051;28;20473;-75
2022/01/14 13:48:41;;;;;;;51.65;23.95;;;;;;;;;;6251678;28;20434;-75
2022/01/14 13:51:42;;;;;;;36.28;19.20;;;;;;;;;;6257360;28;20091;-75
2022/01/14 13:54:53;;;;;;;43.83;19.55;;;;;;;;;;6260450;28;20545;-75
2022/01/14 13:58:11;;;;;;;50.25;21.23;;;;;;;;;;6262284;28;20021;-75
2022/01/14 14:01:12;;;;;;;46.15;23.15;;;;;;;;;;6255534;28;20060;-74
2022/01/14 14:04:24;;;;;;;62.30;26.30;;;;;;;;;;6246900;28;20492;-74
2022/01/14 14:07:26;;;;;;;43.13;21.20;;;;;;;;;;6241457;28;20117;-74
2022/01/14 14:10:47;;;;;;;43.70;19.40;;;;;;;;;;6262513;28;20013;-74
2022/01/14 14:17:16;;;;;;;44.38;22.20;;;;;;;;;;6261549;28;20112;-74
2022/01/14 14:20:21;;;;;;;55.75;26.50;;;;;;;;;;6254636;28;20032;-74
2022/01/14 14:23:23;;;;;;;46.10;22.92;;;;;;;;;;6257125;28;20469;-74
2022/01/14 14:26:29;;;;;;;48.97;24.25;;;;;;;;;;6256837;28;20056;-74
2022/01/14 14:29:29;;;;;;;54.63;26.77;;;;;;;;;;6244688;28;20021;-74
2022/01/14 14:32:34;;;;;;;54.95;24.58;;;;;;;;;;6256202;28;20132;-74
2022/01/14 14:35:35;;;;;;;52.03;26.48;;;;;;;;;;6244397;28;20117;-74
2022/01/14 14:38:36;;;;;;;44.63;22.35;;;;;;;;;;6245617;28;20053;-74
2022/01/14 14:41:36;;;;;;;45.95;24.45;;;;;;;;;;6237606;28;20332;-74
2022/01/14 14:44:36;;;;;;;52.15;24.70;;;;;;;;;;6230100;28;20057;-74
2022/01/14 14:47:37;;;;;;;47.50;22.05;;;;;;;;;;6235642;28;20022;-74
2022/01/14 14:50:37;;;;;;;47.83;22.75;;;;;;;;;;6228624;28;20056;-74
2022/01/14 14:53:38;;;;;;;45.25;25.98;;;;;;;;;;6228891;28;20021;-74
2022/01/14 14:56:38;;;;;;;52.15;26.13;;;;;;;;;;6229464;28;20029;-74
2022/01/14 14:59:39;;;;;;;51.28;24.35;;;;;;;;;;6225202;28;20149;-74
2022/01/14 15:02:42;;;;;;;56.15;30.50;;;;;;;;;;6228590;28;20557;-74
2022/01/14 15:05:42;;;;;;;50.13;25.05;;;;;;;;;;6229649;28;20033;-74
2022/01/14 15:08:50;;;;;;;55.35;27.10;;;;;;;;;;6231048;28;20381;-74
2022/01/14 15:11:51;;;;;;;66.72;31.77;;;;;;;;;;6224650;28;20034;-74
2022/01/14 15:14:53;;;;;;;48.90;25.00;;;;;;;;;;6219514;28;20449;-74
2022/01/14 15:21:08;;;;;;;43.50;25.17;;;;;;;;;;6229291;28;20039;-74
2022/01/14 15:24:09;;;;;;;30.52;19.55;;;;;;;;;;6220344;28;20025;-74
2022/01/14 15:27:10;;;;;;;31.02;19.73;;;;;;;;;;6227981;28;20022;-74
2022/01/14 15:30:11;;;;;;;39.28;22.90;;;;;;;;;;6225432;28;20030;-74
2022/01/14 15:33:11;;;;;;;36.97;20.90;;;;;;;;;;6236675;28;20053;-74
2022/01/14 15:36:11;;;;;;;37.63;19.23;;;;;;;;;;6243806;28;20021;-74
2022/01/14 15:39:11;;;;;;;32.72;18.08;;;;;;;;;;6250879;28;20049;-74
2022/01/14 15:42:12;;;;;;;36.65;21.25;;;;;;;;;;6266722;28;20021;-74
2022/01/14 15:45:12;;;;;;;39.65;16.58;;;;;;;;;;6254986;28;20037;-74
2022/01/14 15:48:14;;;;;;;38.50;20.65;;;;;;;;;;6242805;28;20104;-74
2022/01/14 15:51:14;;;;;;;;;;;;;;;;;;6267951;28;20074;-74
2022/01/14 15:54:16;;;;;;;32.92;18.80;;;;;;;;;;6267315;28;20231;-74
2022/01/14 15:57:16;;;;;;;43.05;21.52;;;;;;;;;;6262788;28;20048;-75
2022/01/14 16:00:17;;;;;;;43.63;23.33;;;;;;;;;;6266963;28;20469;-75
2022/01/14 16:03:18;;;;;;;58.83;26.17;;;;;;;;;;6261091;28;20025;-74
2022/01/14 16:06:18;;;;;;;54.55;27.70;;;;;;;;;;6265736;28;20025;-74
2022/01/14 16:09:19;;;;;;;36.78;19.23;;;;;;;;;;6264767;28;20025;-74
2022/01/14 16:12:19;;;;;;;44.95;19.15;;;;;;;;;;6251932;28;20105;-74
2022/01/14 16:15:19;;;;;;;24.85;15.55;;;;;;;;;;6251749;28;20026;-74
2022/01/14 16:18:20;;;;;;;49.15;23.30;;;;;;;;;;6243598;28;20058;-74
2022/01/14 16:21:20;;;;;;;42.38;22.15;;;;;;;;;;6254032;28;20029;-75
2022/01/14 16:24:20;;;;;;;32.72;16.58;;;;;;;;;;6258310;28;20021;-75
2022/01/14 16:27:21;;;;;;;35.80;18.30;;;;;;;;;;6257499;28;20021;-75
2022/01/14 16:30:21;;;;;;;31.92;14.90;;;;;;;;;;6254838;28;20022;-75
2022/01/14 16:33:22;;;;;;;38.58;21.65;;;;;;;;;;6257288;28;20037;-75
2022/01/14 16:36:23;;;;;;;35.17;19.42;;;;;;;;;;6256120;28;20017;-75
2022/01/14 16:39:24;;;;;;;36.17;17.35;;;;;;;;;;6253566;28;20469;-75
2022/01/14 16:42:26;;;;;;;38.25;18.90;;;;;;;;;;6258121;28;20024;-75
2022/01/14 16:45:27;;;;;;;35.60;18.90;;;;;;;;;;6260933;28;20104;-75
2022/01/14 16:48:27;;;;;;;28.85;16.40;;;;;;;;;;6241489;28;20030;-75
2022/01/14 16:51:27;;;;;;;31.40;15.82;;;;;;;;;;6251155;28;20021;-75
2022/01/14 16:54:28;;;;;;;24.58;14.75;;;;;;;;;;6249289;28;20032;-75
2022/01/14 16:57:28;;;;;;;31.08;18.45;;;;;;;;;;6261529;28;20445;-75
2022/01/14 17:00:28;;;;;;;29.30;16.88;;;;;;;;;;6263860;28;20017;-75
2022/01/14 17:03:29;;;;;;;30.98;16.33;;;;;;;;;;6263077;28;20034;-75
2022/01/14 17:06:30;;;;;;;26.83;16.63;;;;;;;;;;6266502;28;20021;-75
2022/01/14 17:09:30;;;;;;;37.97;20.50;;;;;;;;;;6253602;28;20032;-75
2022/01/14 17:12:32;;;;;;;32.15;17.45;;;;;;;;;;6264230;28;20213;-75
2022/01/14 17:15:32;;;;;;;30.15;18.40;;;;;;;;;;6254299;28;20097;-75
2022/01/14 17:18:33;;;;;;;34.00;17.33;;;;;;;;;;6250116;28;20480;-75
2022/01/14 17:21:34;;;;;;;35.60;17.23;;;;;;;;;;6258619;28;20040;-75
2022/01/14 17:24:35;;;;;;;39.10;18.55;;;;;;;;;;6266486;28;20092;-75
2022/01/14 17:27:36;;;;;;;35.88;19.90;;;;;;;;;;6260468;28;20053;-75
2022/01/14 17:30:36;;;;;;;30.98;17.65;;;;;;;;;;6265036;28;20066;-75
2022/01/14 17:33:36;;;;;;;30.50;17.40;;;;;;;;;;6272374;28;20051;-75
2022/01/14 17:36:37;;;;;;;27.02;13.55;;;;;;;;;;6272517;28;20021;-75
2022/01/14 17:39:37;;;;;;;42.30;23.33;;;;;;;;;;6263953;28;20028;-75
2022/01/14 17:42:37;;;;;;;27.02;12.80;;;;;;;;;;6259134;28;20048;-76
2022/01/14 17:45:41;;;;;;;26.98;15.18;;;;;;;;;;6261188;28;20013;-76
2022/01/14 17:48:42;;;;;;;34.53;19.08;;;;;;;;;;6252364;28;20029;-75
2022/01/14 17:51:44;;;;;;;33.10;17.48;;;;;;;;;;6262562;28;20036;-75
2022/01/14 17:54:44;;;;;;;;;;;;;;;;;;6272429;28;20100;-75
2022/01/14 17:57:45;;;;;;;29.38;15.10;;;;;;;;;;6262401;28;19913;-75
2022/01/14 18:00:45;;;;;;;42.47;21.63;;;;;;;;;;6246638;28;20032;-75
2022/01/14 18:03:46;;;;;;;33.83;17.23;;;;;;;;;;6255619;28;20544;-75
2022/01/14 18:06:49;;;;;;;35.40;19.58;;;;;;;;;;6248352;28;20025;-75
2022/01/14 18:09:50;;;;;;;41.28;21.65;;;;;;;;;;6258138;28;20100;-75
2022/01/14 18:15:54;;;;;;;31.02;15.68;;;;;;;;;;6256588;28;20468;-75